createdAt,value
2018-12-10T00:01:09.216Z,100.00
2018-12-10T00:03:37.203Z,100.00
2018-12-10T00:06:04.773Z,100.00
2018-12-10T00:08:32.594Z,100.00
2018-12-10T00:11:00.405Z,100.00
2018-12-10T00:13:28.409Z,100.00
2018-12-10T00:15:55.949Z,100.00
2018-12-10T00:18:23.503Z,100.00
2018-12-10T00:20:51.027Z,100.00
2018-12-10T00:23:18.551Z,100.00
2018-12-10T00:25:46.379Z,100.00
2018-12-10T00:28:13.925Z,100.00
2018-12-10T00:30:41.453Z,100.00
2018-12-10T00:33:09.044Z,100.00
2018-12-10T00:35:37.460Z,100.00
2018-12-10T00:38:04.988Z,100.00
2018-12-10T00:40:32.773Z,100.00
2018-12-10T00:43:00.312Z,100.00
2018-12-10T00:45:27.835Z,100.00
2018-12-10T00:47:55.655Z,100.00
2018-12-10T00:50:23.200Z,100.00
2018-12-10T00:52:50.841Z,100.00
2018-12-10T00:55:18.407Z,100.00
2018-12-10T00:57:46.572Z,100.00
2018-12-10T01:00:14.129Z,100.00
2018-12-10T01:02:41.939Z,100.00
2018-12-10T01:05:09.485Z,100.00
2018-12-10T01:07:37.012Z,100.00
2018-12-10T01:10:05.243Z,100.00
2018-12-10T01:12:32.777Z,100.00
2018-12-10T01:15:00.317Z,100.00
2018-12-10T01:17:27.878Z,100.00
2018-12-10T01:19:55.421Z,100.00
2018-12-10T01:22:22.974Z,100.00
2018-12-10T01:24:50.809Z,100.00
2018-12-10T01:27:18.379Z,100.00
2018-12-10T01:29:45.919Z,100.00
2018-12-10T01:32:13.792Z,100.00
2018-12-10T01:34:41.321Z,100.00
2018-12-10T01:37:08.854Z,100.00
2018-12-10T01:39:36.683Z,100.00
2018-12-10T01:42:04.222Z,100.00
2018-12-10T01:44:31.759Z,100.00
2018-12-10T01:46:59.321Z,100.00
2018-12-10T01:49:26.864Z,100.00
2018-12-10T01:51:54.383Z,100.00
2018-12-10T01:54:22.264Z,100.00
2018-12-10T01:56:49.789Z,100.00
2018-12-10T01:59:17.316Z,100.00
2018-12-10T02:01:44.869Z,100.00
2018-12-10T02:04:12.440Z,100.00
2018-12-10T02:06:40.101Z,100.00
2018-12-10T02:09:08.038Z,100.00
2018-12-10T02:11:35.564Z,100.00
2018-12-10T02:14:03.332Z,100.00
2018-12-10T02:16:30.881Z,100.00
2018-12-10T02:18:58.407Z,100.00
2018-12-10T02:21:26.017Z,100.00
2018-12-10T02:23:53.896Z,100.00
2018-12-10T02:26:21.418Z,100.00
2018-12-10T02:28:54.762Z,100.00
2018-12-10T02:31:22.317Z,100.00
2018-12-10T02:33:49.831Z,100.00
2018-12-10T02:36:17.857Z,100.00
2018-12-10T02:38:45.412Z,100.00
2018-12-10T02:41:12.945Z,100.00
2018-12-10T02:43:40.737Z,100.00
2018-12-10T02:46:08.317Z,100.00
2018-12-10T02:48:35.836Z,100.00
2018-12-10T02:51:03.619Z,100.00
2018-12-10T02:53:31.136Z,100.00
2018-12-10T02:55:58.665Z,100.00
2018-12-10T02:58:26.295Z,100.00
2018-12-10T03:00:53.809Z,100.00
2018-12-10T03:03:21.329Z,100.00
2018-12-10T03:05:49.010Z,100.00
2018-12-10T03:08:16.580Z,100.00
2018-12-10T03:10:44.115Z,100.00
2018-12-10T03:13:11.995Z,100.00
2018-12-10T03:15:39.540Z,100.00
2018-12-10T03:18:07.082Z,100.00
2018-12-10T03:20:35.054Z,100.00
2018-12-10T03:23:02.591Z,100.00
2018-12-10T03:25:30.130Z,100.00
2018-12-10T03:27:57.706Z,100.00
2018-12-10T03:30:25.250Z,100.00
2018-12-10T03:32:52.765Z,100.00
2018-12-10T03:35:20.341Z,100.00
2018-12-10T03:37:47.877Z,100.00
2018-12-10T03:40:15.418Z,100.00
2018-12-10T03:42:43.002Z,100.00
2018-12-10T03:45:10.530Z,100.00
2018-12-10T03:47:38.083Z,100.00
2018-12-10T03:50:06.941Z,100.00
2018-12-10T03:52:34.464Z,100.00
2018-12-10T03:55:01.983Z,100.00
2018-12-10T03:57:29.893Z,100.00
2018-12-10T03:59:57.414Z,100.00
2018-12-10T04:02:24.947Z,100.00
2018-12-10T04:04:52.686Z,100.00
2018-12-10T04:07:20.213Z,100.00
2018-12-10T04:09:47.755Z,100.00
2018-12-10T04:12:15.608Z,100.00
2018-12-10T04:14:43.131Z,100.00
2018-12-10T04:17:10.679Z,100.00
2018-12-10T04:19:38.252Z,100.00
2018-12-10T04:22:05.793Z,100.00
2018-12-10T04:24:33.335Z,100.00
2018-12-10T04:27:00.920Z,100.00
2018-12-10T04:29:28.461Z,100.00
2018-12-10T04:31:55.995Z,100.00
2018-12-10T04:34:23.840Z,100.00
2018-12-10T04:36:51.613Z,100.00
2018-12-10T04:39:19.160Z,100.00
2018-12-10T04:41:47.046Z,100.00
2018-12-10T04:44:14.635Z,100.00
2018-12-10T04:46:42.177Z,100.00
2018-12-10T04:49:09.967Z,100.00
2018-12-10T04:51:37.512Z,100.00
2018-12-10T04:54:05.041Z,100.00
2018-12-10T04:56:32.903Z,100.00
2018-12-10T04:59:01.014Z,100.00
2018-12-10T05:01:28.621Z,100.00
2018-12-10T05:03:56.184Z,100.00
2018-12-10T05:06:23.735Z,100.00
2018-12-10T05:08:51.257Z,100.00
2018-12-10T05:11:19.080Z,100.00
2018-12-10T05:13:46.642Z,100.00
2018-12-10T05:16:14.201Z,100.00
2018-12-10T05:18:42.197Z,100.00
2018-12-10T05:21:09.752Z,100.00
2018-12-10T05:23:37.290Z,100.00
2018-12-10T05:26:04.842Z,100.00
2018-12-10T05:28:32.415Z,100.00
2018-12-10T05:30:59.944Z,100.00
2018-12-10T05:33:27.513Z,100.00
2018-12-10T05:35:55.047Z,100.00
2018-12-10T05:38:22.578Z,100.00
2018-12-10T05:40:50.436Z,100.00
2018-12-10T05:43:17.955Z,100.00
2018-12-10T05:45:45.545Z,100.00
2018-12-10T05:48:13.653Z,100.00
2018-12-10T05:50:41.177Z,100.00
2018-12-10T05:53:08.742Z,100.00
2018-12-10T05:55:36.548Z,100.00
2018-12-10T05:58:04.063Z,100.00
2018-12-10T06:00:31.592Z,100.00
2018-12-10T06:02:59.411Z,100.00
2018-12-10T06:05:26.955Z,100.00
2018-12-10T06:07:54.554Z,100.00
2018-12-10T06:10:22.220Z,100.00
2018-12-10T06:12:49.742Z,100.00
2018-12-10T06:15:17.296Z,100.00
2018-12-10T06:17:45.147Z,100.00
2018-12-10T06:20:13.158Z,100.00
2018-12-10T06:22:40.676Z,100.00
2018-12-10T06:25:08.193Z,100.00
2018-12-10T06:27:36.122Z,100.00
2018-12-10T06:30:04.232Z,100.00
2018-12-10T06:32:31.762Z,100.00
2018-12-10T06:34:59.628Z,100.00
2018-12-10T06:37:27.507Z,100.00
2018-12-10T06:39:55.059Z,100.00
2018-12-10T06:42:22.597Z,100.00
2018-12-10T06:44:50.413Z,100.00
2018-12-10T06:47:17.944Z,100.00
2018-12-10T06:49:45.461Z,100.00
2018-12-10T06:52:13.308Z,100.00
2018-12-10T06:54:40.984Z,100.00
2018-12-10T06:57:08.505Z,100.00
2018-12-10T06:59:36.461Z,100.00
2018-12-10T07:02:04.372Z,100.00
2018-12-10T07:04:31.954Z,100.00
2018-12-10T07:06:59.525Z,100.00
2018-12-10T07:09:27.425Z,100.00
2018-12-10T07:11:54.952Z,100.00
2018-12-10T07:14:22.552Z,100.00
2018-12-10T07:16:50.418Z,100.00
2018-12-10T07:19:17.947Z,100.00
2018-12-10T07:21:45.489Z,100.00
2018-12-10T07:24:13.843Z,100.00
2018-12-10T07:26:41.381Z,100.00
2018-12-10T07:29:09.272Z,100.00
2018-12-10T07:31:36.908Z,100.00
2018-12-10T07:34:04.802Z,100.00
2018-12-10T07:36:32.876Z,100.00
2018-12-10T07:39:00.922Z,100.00
2018-12-10T07:41:28.585Z,100.00
2018-12-10T07:43:56.757Z,100.00
2018-12-10T07:46:24.283Z,100.00
2018-12-10T07:48:51.871Z,100.00
2018-12-10T07:51:19.433Z,100.00
2018-12-10T07:53:46.972Z,100.00
2018-12-10T07:56:14.664Z,100.00
2018-12-10T07:58:42.206Z,100.00
2018-12-10T08:01:10.016Z,100.00
2018-12-10T08:03:37.544Z,100.00
2018-12-10T08:06:05.075Z,100.00
2018-12-10T08:08:32.895Z,100.00
2018-12-10T08:11:00.440Z,100.00
2018-12-10T08:13:27.962Z,100.00
2018-12-10T08:15:55.866Z,100.00
2018-12-10T08:18:23.855Z,100.00
2018-12-10T08:20:51.694Z,100.00
2018-12-10T08:23:19.229Z,100.00
2018-12-10T08:25:46.748Z,100.00
2018-12-10T08:28:14.640Z,100.00
2018-12-10T08:30:42.160Z,100.00
2018-12-10T08:33:09.867Z,100.00
2018-12-10T08:35:40.939Z,100.00
2018-12-10T08:38:06.982Z,100.00
2018-12-10T08:40:34.535Z,100.00
2018-12-10T08:43:02.062Z,100.00
2018-12-10T08:45:29.635Z,100.00
2018-12-10T08:47:57.521Z,100.00
2018-12-10T08:50:25.069Z,100.00
2018-12-10T08:52:53.344Z,100.00
2018-12-10T08:55:21.012Z,100.00
2018-12-10T08:57:48.550Z,100.00
2018-12-10T09:00:16.333Z,100.00
2018-12-10T09:02:43.870Z,100.00
2018-12-10T09:05:11.448Z,100.00
2018-12-10T09:07:39.250Z,100.00
2018-12-10T09:10:07.228Z,100.00
2018-12-10T09:12:34.863Z,100.00
2018-12-10T09:15:02.743Z,100.00
2018-12-10T09:17:30.309Z,100.00
2018-12-10T09:19:57.875Z,100.00
2018-12-10T09:22:25.790Z,100.00
2018-12-10T09:24:53.317Z,100.00
2018-12-10T09:27:20.932Z,100.00
2018-12-10T09:29:48.947Z,100.00
2018-12-10T09:32:16.502Z,100.00
2018-12-10T09:34:44.038Z,100.00
2018-12-10T09:37:11.900Z,100.00
2018-12-10T09:39:39.452Z,100.00
2018-12-10T09:42:07.013Z,100.00
2018-12-10T09:44:34.798Z,100.00
2018-12-10T09:47:02.451Z,100.00
2018-12-10T09:49:29.958Z,100.00
2018-12-10T09:51:58.075Z,100.00
2018-12-10T09:54:25.595Z,100.00
2018-12-10T09:56:53.215Z,100.00
2018-12-10T09:59:20.745Z,100.00
2018-12-10T10:01:48.302Z,100.00
2018-12-10T10:04:16.092Z,100.00
2018-12-10T10:06:43.973Z,100.00
2018-12-10T10:09:11.719Z,100.00
2018-12-10T10:11:39.610Z,100.00
2018-12-10T10:14:07.470Z,100.00
2018-12-10T10:16:35.629Z,100.00
2018-12-10T10:19:03.141Z,100.00
2018-12-10T10:21:30.714Z,100.00
2018-12-10T10:23:59.531Z,100.00
2018-12-10T10:26:27.300Z,100.00
2018-12-10T10:28:54.864Z,100.00
2018-12-10T10:31:22.563Z,100.00
2018-12-10T10:33:50.087Z,100.00
2018-12-10T10:36:17.604Z,100.00
2018-12-10T10:38:45.723Z,100.00
2018-12-10T10:41:13.422Z,100.00
2018-12-10T10:43:41.051Z,100.00
2018-12-10T10:46:08.933Z,100.00
2018-12-10T10:48:36.442Z,100.00
2018-12-10T10:51:04.087Z,100.00
2018-12-10T10:53:32.101Z,100.00
2018-12-10T10:55:59.898Z,100.00
2018-12-10T10:58:27.772Z,100.00
2018-12-10T11:01:00.921Z,100.00
2018-12-10T11:03:34.004Z,100.00
2018-12-10T11:06:01.891Z,100.00
2018-12-10T11:08:29.455Z,100.00
2018-12-10T11:10:56.972Z,100.00
2018-12-10T11:13:24.808Z,100.00
2018-12-10T11:15:52.368Z,100.00
2018-12-10T11:18:19.912Z,100.00
2018-12-10T11:20:48.022Z,100.00
2018-12-10T11:23:15.573Z,100.00
2018-12-10T11:25:43.488Z,100.00
2018-12-10T11:28:11.018Z,100.00
2018-12-10T11:30:38.628Z,100.00
2018-12-10T11:33:06.652Z,100.00
2018-12-10T11:35:34.193Z,100.00
2018-12-10T11:38:01.725Z,100.00
2018-12-10T11:40:29.690Z,100.00
2018-12-10T11:42:57.257Z,100.00
2018-12-10T11:45:24.832Z,100.00
2018-12-10T11:47:52.757Z,100.00
2018-12-10T11:50:20.690Z,100.00
2018-12-10T11:52:48.670Z,100.00
2018-12-10T11:55:16.287Z,100.00
2018-12-10T11:57:44.257Z,100.00
2018-12-10T12:00:11.776Z,100.00
2018-12-10T12:02:39.300Z,100.00
2018-12-10T12:05:07.157Z,100.00
2018-12-10T12:07:34.676Z,100.00
2018-12-10T12:10:02.317Z,100.00
2018-12-10T13:44:28.572Z,100.00
2018-12-10T13:46:56.684Z,100.00
2018-12-10T13:49:24.208Z,100.00
2018-12-10T13:51:51.758Z,100.00
2018-12-10T13:54:19.832Z,100.00
2018-12-10T13:56:47.906Z,100.00
2018-12-10T13:59:15.559Z,100.00
2018-12-10T14:01:43.079Z,100.00
2018-12-10T14:04:11.966Z,100.00
2018-12-10T14:06:40.596Z,100.00
2018-12-10T14:09:08.268Z,100.00
2018-12-10T14:11:35.823Z,100.00
2018-12-10T14:14:03.331Z,100.00
2018-12-10T14:16:30.857Z,100.00
2018-12-10T14:18:58.944Z,100.00
2018-12-10T14:21:26.481Z,100.00
2018-12-10T14:23:54.122Z,100.00
2018-12-10T14:26:21.941Z,100.00
2018-12-10T14:28:49.538Z,100.00
2018-12-10T14:31:17.052Z,100.00
2018-12-10T14:33:45.002Z,100.00
2018-12-10T14:36:12.524Z,100.00
2018-12-10T14:38:40.110Z,100.00
2018-12-10T14:41:07.901Z,100.00
2018-12-10T14:43:35.419Z,100.00
2018-12-10T14:46:03.008Z,100.00
2018-12-10T14:48:30.804Z,100.00
2018-12-10T14:50:58.318Z,100.00
2018-12-10T14:53:25.898Z,100.00
2018-12-10T14:55:53.762Z,100.00
2018-12-10T14:58:21.267Z,100.00
2018-12-10T15:00:48.886Z,100.00
2018-12-10T15:03:16.752Z,100.00
2018-12-10T15:05:44.536Z,100.00
2018-12-10T15:08:12.414Z,100.00
2018-12-10T15:10:39.993Z,100.00
2018-12-10T15:13:08.231Z,100.00
2018-12-10T15:15:35.814Z,100.00
2018-12-10T15:18:03.420Z,100.00
2018-12-10T15:20:31.357Z,100.00
2018-12-10T15:22:59.098Z,100.00
2018-12-10T15:25:26.854Z,100.00
2018-12-10T15:27:54.664Z,100.00
2018-12-10T15:30:22.213Z,100.00
2018-12-10T15:32:50.654Z,100.00
2018-12-10T15:35:18.631Z,100.00
2018-12-10T15:37:46.497Z,100.00
2018-12-10T15:40:14.292Z,100.00
2018-12-10T15:42:42.247Z,100.00
2018-12-10T15:45:09.816Z,100.00
2018-12-10T15:47:37.490Z,100.00
2018-12-10T15:50:05.149Z,100.00
2018-12-10T15:52:33.113Z,100.00
2018-12-10T15:55:00.663Z,100.00
2018-12-10T15:57:28.206Z,100.00
2018-12-10T15:59:56.322Z,100.00
2018-12-10T16:02:24.051Z,100.00
2018-12-10T16:04:51.607Z,100.00
2018-12-10T16:07:19.482Z,100.00
2018-12-10T16:09:47.138Z,100.00
2018-12-10T16:12:14.693Z,100.00
2018-12-10T16:14:42.362Z,100.00
2018-12-10T16:17:09.896Z,100.00
2018-12-10T16:19:37.424Z,100.00
2018-12-10T16:22:05.044Z,100.00
2018-12-10T16:24:32.602Z,100.00
2018-12-10T16:27:00.274Z,100.00
2018-12-10T16:29:27.944Z,100.00
2018-12-10T16:31:55.535Z,100.00
2018-12-10T16:34:23.129Z,100.00
2018-12-10T16:36:50.947Z,100.00
2018-12-10T16:39:18.463Z,100.00
2018-12-10T16:41:46.004Z,100.00
2018-12-10T16:44:14.016Z,100.00
2018-12-10T16:46:41.765Z,100.00
2018-12-10T16:49:09.284Z,100.00
2018-12-10T16:51:37.143Z,100.00
2018-12-10T16:54:04.769Z,100.00
2018-12-10T16:56:32.362Z,100.00
2018-12-10T16:59:00.320Z,100.00
2018-12-10T17:01:27.894Z,100.00
2018-12-10T17:03:55.447Z,100.00
2018-12-10T17:06:23.360Z,100.00
2018-12-10T17:08:51.004Z,99.93
2018-12-10T17:11:18.556Z,98.90
2018-12-10T17:13:47.153Z,99.40
2018-12-10T17:16:14.664Z,98.43
2018-12-10T17:18:42.214Z,96.65
2018-12-10T17:21:10.750Z,95.81
2018-12-10T17:23:38.316Z,96.05
2018-12-10T17:26:05.876Z,95.40
2018-12-10T17:28:33.503Z,94.83
2018-12-10T17:31:01.090Z,95.13
2018-12-10T17:33:28.629Z,94.50
2018-12-10T17:35:56.772Z,92.54
2018-12-10T17:38:24.387Z,92.40
2018-12-10T17:40:51.912Z,91.64
2018-12-10T17:43:19.466Z,91.46
2018-12-10T17:45:47.238Z,92.28
2018-12-10T17:48:15.141Z,91.15
2018-12-10T17:50:42.709Z,92.27
2018-12-10T17:53:10.267Z,92.98
2018-12-10T17:55:38.150Z,93.08
2018-12-10T17:58:05.696Z,93.85
2018-12-10T18:00:33.257Z,93.62
2018-12-10T18:03:00.881Z,93.89
2018-12-10T18:05:28.480Z,94.63
2018-12-10T18:07:56.039Z,94.31
2018-12-10T18:10:23.607Z,94.31
2018-12-10T18:12:51.164Z,93.70
2018-12-10T18:15:18.705Z,94.39
2018-12-10T18:17:46.617Z,94.90
2018-12-10T18:20:14.174Z,95.12
2018-12-10T18:22:41.697Z,95.17
2018-12-10T18:25:09.606Z,94.78
2018-12-10T18:27:37.130Z,95.10
2018-12-10T18:30:05.622Z,94.98
2018-12-10T18:32:33.519Z,95.26
2018-12-10T18:35:01.092Z,94.89
2018-12-10T18:37:29.305Z,94.16
2018-12-10T18:39:56.858Z,94.47
2018-12-10T18:42:24.480Z,94.84
2018-12-10T18:44:52.431Z,94.92
2018-12-10T18:47:19.989Z,95.03
2018-12-10T18:49:47.603Z,94.62
2018-12-10T18:52:15.579Z,94.48
2018-12-10T18:54:43.141Z,94.53
2018-12-10T18:57:10.704Z,94.73
2018-12-10T18:59:38.761Z,94.11
2018-12-10T19:02:06.282Z,93.60
2018-12-10T19:04:33.808Z,93.28
2018-12-10T19:07:01.592Z,91.64
2018-12-10T19:09:29.134Z,91.61
2018-12-10T19:11:56.682Z,90.96
2018-12-10T19:14:24.514Z,90.29
2018-12-10T19:16:52.039Z,90.35
2018-12-10T19:19:19.558Z,90.67
2018-12-10T19:21:47.249Z,90.28
2018-12-10T19:24:14.871Z,89.22
2018-12-10T19:26:42.401Z,89.46
2018-12-10T19:29:10.239Z,88.96
2018-12-10T19:31:37.759Z,89.47
2018-12-10T19:34:05.307Z,88.82
2018-12-10T19:36:33.448Z,88.88
2018-12-10T19:39:01.035Z,89.53
2018-12-10T19:41:28.656Z,89.67
2018-12-10T19:43:56.536Z,89.71
2018-12-10T19:46:24.126Z,89.45
2018-12-10T19:48:51.732Z,90.44
2018-12-10T19:51:19.336Z,90.59
2018-12-10T19:53:46.888Z,90.14
2018-12-10T19:56:14.420Z,91.04
2018-12-10T19:58:42.331Z,90.52
2018-12-10T20:01:09.911Z,91.19
2018-12-10T20:03:38.240Z,91.63
2018-12-10T20:06:16.346Z,91.31
2018-12-10T20:08:43.892Z,91.78
2018-12-10T20:11:11.488Z,92.14
2018-12-10T20:13:39.324Z,92.53
2018-12-10T20:16:06.883Z,92.29
2018-12-10T20:18:34.870Z,92.45
2018-12-10T20:21:02.389Z,92.14
2018-12-10T20:23:29.973Z,92.59
2018-12-10T20:25:58.461Z,93.17
2018-12-10T20:28:26.101Z,92.88
2018-12-10T20:30:53.675Z,92.99
2018-12-10T20:33:21.282Z,92.79
2018-12-10T20:35:48.915Z,92.68
2018-12-10T20:38:16.435Z,92.35
2018-12-10T20:40:44.337Z,92.44
2018-12-10T20:43:11.855Z,92.21
2018-12-10T20:45:39.395Z,91.70
2018-12-10T20:48:06.949Z,91.51
2018-12-10T20:50:34.506Z,91.66
2018-12-10T20:53:02.033Z,91.68
2018-12-10T20:55:29.911Z,91.50
2018-12-10T20:57:57.579Z,91.01
2018-12-10T21:00:25.129Z,90.85
2018-12-10T21:02:52.912Z,91.37
2018-12-10T21:05:20.435Z,91.50
2018-12-10T21:07:47.944Z,91.03
2018-12-10T21:10:15.878Z,91.29
2018-12-10T21:12:43.395Z,90.83
2018-12-10T21:15:10.920Z,90.08
2018-12-10T21:17:38.671Z,89.87
2018-12-10T21:20:07.318Z,89.21
2018-12-10T21:22:34.914Z,88.88
2018-12-10T21:25:30.513Z,87.85
2018-12-10T21:27:58.133Z,87.74
2018-12-10T21:30:25.644Z,87.14
2018-12-10T21:32:53.198Z,86.93
2018-12-10T21:35:20.728Z,87.10
2018-12-10T21:37:48.249Z,87.07
2018-12-10T21:40:16.013Z,87.67
2018-12-10T21:42:43.978Z,87.66
2018-12-10T21:45:11.492Z,87.08
2018-12-10T21:47:38.998Z,86.69
2018-12-10T21:50:06.566Z,87.61
2018-12-10T21:52:34.074Z,86.47
2018-12-10T21:55:01.585Z,86.55
2018-12-10T21:57:29.165Z,86.65
2018-12-10T21:59:56.718Z,86.85
2018-12-10T22:02:24.716Z,86.25
2018-12-10T22:04:52.540Z,86.58
2018-12-10T22:07:20.525Z,86.84
2018-12-10T22:09:48.029Z,86.46
2018-12-10T22:12:15.904Z,85.55
2018-12-10T22:14:43.442Z,85.54
2018-12-10T22:17:10.940Z,85.52
2018-12-10T22:19:38.450Z,86.03
2018-12-10T22:22:06.291Z,85.08
2018-12-10T22:24:33.790Z,85.12
2018-12-10T22:27:01.336Z,84.31
2018-12-10T22:29:29.176Z,84.05
2018-12-10T22:31:56.693Z,84.68
2018-12-10T22:34:24.198Z,84.32
2018-12-10T22:36:52.080Z,84.61
2018-12-10T22:39:19.574Z,84.58
2018-12-10T22:41:47.138Z,84.21
2018-12-10T22:44:14.970Z,84.54
2018-12-10T22:46:42.527Z,82.79
2018-12-10T22:49:10.027Z,83.81
2018-12-10T22:51:37.953Z,83.75
2018-12-10T22:54:05.458Z,83.00
2018-12-10T22:56:32.972Z,82.85
2018-12-10T22:59:02.205Z,82.95
2018-12-10T23:01:29.846Z,82.77
2018-12-10T23:03:57.358Z,82.57
2018-12-10T23:06:25.251Z,82.82
2018-12-10T23:08:53.336Z,82.54
2018-12-10T23:11:20.919Z,82.76
2018-12-10T23:13:48.429Z,82.27
2018-12-10T23:16:16.226Z,81.76
2018-12-10T23:18:43.714Z,81.89
2018-12-10T23:21:11.244Z,81.31
2018-12-10T23:23:39.110Z,82.00
2018-12-10T23:26:06.676Z,81.84
2018-12-10T23:28:34.209Z,82.18
2018-12-10T23:31:02.195Z,81.59
2018-12-10T23:33:29.722Z,82.22
2018-12-10T23:35:57.244Z,82.43
2018-12-10T23:38:24.786Z,82.03
2018-12-10T23:40:52.306Z,81.92
2018-12-10T23:43:24.988Z,82.55
2018-12-10T23:45:53.319Z,82.38
2018-12-10T23:50:55.444Z,81.48
2018-12-10T23:53:22.957Z,81.68
2018-12-10T23:55:50.459Z,81.15
2018-12-10T23:58:19.272Z,80.91
